Time;durP1;ratioP1;P1;durP2;ratioP2;P2;SDS_P1;SDS_P2;PMS_P1;PMS_P2;Temp;Humidity;BMP_temperature;BMP_pressure;BME280_temperature;BME280_humidity;BME280_pressure;Samples;Min_cycle;Max_cycle;Signal;HPM_P1;HPM_P2
2022/09/24 08:52:52;;;;;;;;;10.25;9.50;;;;;17.86;71.90;101114.97;6213394;22;1786370;-82
2022/09/24 08:55:24;;;;;;;;;11.00;11.00;;;;;17.70;70.46;101079.63;6305682;22;49807;-84
2022/09/24 08:58:17;;;;;;;;;11.25;10.50;;;;;18.07;70.71;101119.31;6306354;22;50771;-80
2022/09/24 09:00:48;;;;;;;;;9.50;8.75;;;;;17.99;68.28;101106.94;6303230;22;49635;-82
2022/09/24 09:03:31;;;;;;;;;13.50;10.00;;;;;17.95;68.59;101078.66;6305185;22;49818;-84
2022/09/24 09:06:09;;;;;;;;;7.00;6.50;;;;;18.26;68.48;101148.47;6303958;22;49585;-86
2022/09/24 09:08:47;;;;;;;;;11.00;10.00;;;;;18.13;67.41;101084.75;6302831;22;52120;-79
2022/09/24 09:11:18;;;;;;;;;12.25;12.25;;;;;18.46;67.96;101120.91;6305037;22;49678;-76
2022/09/24 09:13:56;;;;;;;;;11.00;11.00;;;;;17.78;66.68;100984.88;6304645;22;49497;-74
2022/09/24 09:16:57;;;;;;;;;12.00;10.25;;;;;18.71;65.63;101117.19;6305278;22;49752;-73
2022/09/24 09:19:27;;;;;;;;;10.25;9.50;;;;;18.84;64.08;101126.88;6231923;22;49934;-74
2022/09/24 09:22:00;;;;;;;;;12.75;11.50;;;;;18.84;63.79;101116.25;6298144;22;49736;-74
2022/09/24 09:24:37;;;;;;;;;15.25;12.50;;;;;18.91;63.39;101124.16;6298587;22;49822;-74
2022/09/24 09:27:13;;;;;;;;;8.75;8.75;;;;;17.92;62.78;100959.13;6298845;22;49564;-75
2022/09/24 09:29:50;;;;;;;;;10.75;9.75;;;;;18.38;64.41;101022.59;6297790;22;50433;-74
2022/09/24 09:32:30;;;;;;;;;10.50;10.25;;;;;19.10;62.18;101117.78;6297789;22;49879;-75
2022/09/24 09:35:05;;;;;;;;;11.50;10.25;;;;;19.12;61.62;101113.38;6297686;22;49788;-75
2022/09/24 09:37:45;;;;;;;;;13.75;11.25;;;;;18.99;61.90;101103.69;6298421;22;49756;-72
2022/09/24 09:40:13;;;;;;;;;11.75;11.00;;;;;19.16;61.55;101123.94;6297459;22;50986;-72
2022/09/24 09:42:43;;;;;;;;;13.25;13.25;;;;;18.56;61.15;101043.72;6296261;22;49815;-73
2022/09/24 09:45:34;;;;;;;;;11.75;10.00;;;;;19.13;61.83;101129.31;6298276;22;49611;-73
2022/09/24 09:48:02;;;;;;;;;10.00;9.25;;;;;18.07;62.54;100936.03;6298161;22;49900;-80
2022/09/24 09:50:47;;;;;;;;;12.25;12.25;;;;;18.04;62.50;100902.38;6298295;22;49887;-82
2022/09/24 09:53:25;;;;;;;;;9.75;9.75;;;;;18.63;61.93;101023.31;6298159;22;49583;-81
2022/09/24 09:56:03;;;;;;;;;12.00;12.00;;;;;18.62;61.83;101034.81;6297350;22;49735;-81
2022/09/24 09:59:54;;;;;;;;;15.75;12.50;;;;;18.98;62.15;101093.97;5089850;27;1302118;-79
2022/09/24 10:02:32;;;;;;;;;15.00;14.00;;;;;18.76;60.59;101046.25;5093467;27;49824;-72
2022/09/24 10:04:59;;;;;;;;;13.75;13.50;;;;;18.26;59.99;100914.59;5108719;27;49984;-82
2022/09/24 10:07:25;;;;;;;;;15.75;15.50;;;;;18.60;60.71;100965.69;5106191;27;51282;-78
2022/09/24 10:10:15;;;;;;;;;14.50;12.00;;;;;19.55;61.25;101110.28;5125321;27;49674;-77
2022/09/24 10:12:40;;;;;;;;;13.75;12.25;;;;;19.14;61.28;101029.06;5122005;27;49720;-76
2022/09/24 10:15:17;;;;;;;;;17.75;16.25;;;;;19.69;61.63;101117.25;5128510;27;49883;-76
2022/09/24 10:17:45;;;;;;;;;15.75;14.75;;;;;19.24;60.92;101029.84;5128059;27;49753;-74
2022/09/24 10:20:18;;;;;;;;;15.75;14.50;;;;;19.08;61.78;101000.72;5114732;27;50054;-78
2022/09/24 10:22:50;;;;;;;;;20.50;17.50;;;;;18.64;60.87;100904.53;5110191;27;49694;-78
2022/09/24 10:25:23;;;;;;;;;16.00;16.00;;;;;19.53;60.52;101021.53;5106342;27;49635;-75
2022/09/24 10:27:51;;;;;;;;;21.25;18.50;;;;;20.38;60.45;101111.06;5114694;27;49947;-77
2022/09/24 10:30:32;;;;;;;;;18.00;16.75;;;;;19.71;59.23;100970.75;5124634;27;49914;-75
2022/09/24 10:33:00;;;;;;;;;15.25;13.50;;;;;19.75;57.83;100980.44;5103657;27;49727;-75
2022/09/24 10:35:37;;;;;;;;;17.75;16.00;;;;;19.49;56.87;100914.19;5125501;27;49963;-78
2022/09/24 10:38:16;;;;;;;;;16.25;16.00;;;;;20.69;58.00;101108.88;5129882;27;50793;-78
2022/09/24 10:40:42;;;;;;;;;14.00;14.00;;;;;20.81;58.14;101124.69;5118551;27;49669;-81
2022/09/24 10:43:19;;;;;;;;;15.50;14.50;;;;;20.90;57.91;101114.75;5111030;27;50014;-72
2022/09/24 10:46:12;;;;;;;;;20.25;18.00;;;;;20.86;57.33;101109.50;5124025;27;49791;-71
2022/09/24 10:48:43;;;;;;;;;19.75;17.00;;;;;20.41;56.50;101031.03;5089039;27;51689;-72
2022/09/24 10:51:22;;;;;;;;;21.25;18.75;;;;;20.62;56.23;101059.16;5134596;27;50014;-71
2022/09/24 10:54:16;;;;;;;;;16.25;15.50;;;;;20.66;56.06;101092.03;5130784;27;49564;-70
2022/09/24 10:56:50;;;;;;;;;14.75;13.50;;;;;20.34;56.96;101049.78;5125325;27;49525;-72
2022/09/24 10:59:41;;;;;;;;;18.25;17.50;;;;;20.56;56.80;101107.28;5124095;27;49867;-71
2022/09/24 11:02:12;;;;;;;;;19.50;18.25;;;;;20.44;57.08;101115.44;5136998;27;49623;-74
2022/09/24 11:04:49;;;;;;;;;16.50;16.25;;;;;20.03;56.96;101079.53;5142988;27;49798;-72
2022/09/24 11:07:43;;;;;;;;;19.00;17.75;;;;;20.06;57.84;101113.25;5127315;27;49319;-81
2022/09/24 11:10:50;;;;;;;;;15.75;15.75;;;;;19.89;57.36;101077.06;5102684;27;49658;-79
2022/09/24 11:13:43;;;;;;;;;17.00;17.00;;;;;20.04;57.30;101104.41;5093966;27;49846;-74
2022/09/24 11:16:43;;;;;;;;;17.25;16.25;;;;;19.23;58.53;100951.78;5094123;27;49823;-76
2022/09/24 11:19:46;;;;;;;;;18.75;15.00;;;;;20.24;57.32;101105.03;5093682;27;49640;-73
2022/09/24 11:22:18;;;;;;;;;18.75;17.25;;;;;19.72;57.33;101028.44;5076827;27;51042;-74
2022/09/24 11:25:06;;;;;;;;;20.00;17.25;;;;;20.26;55.47;101082.78;5084338;27;50092;-74
2022/09/24 11:27:47;;;;;;;;;17.50;15.00;;;;;20.12;55.33;101071.44;5100607;27;49626;-76
2022/09/24 11:30:19;;;;;;;;;14.50;14.25;;;;;19.67;56.69;100974.34;5094753;27;49993;-73
2022/09/24 11:32:52;;;;;;;;;22.00;20.00;;;;;20.18;56.21;101062.47;5093035;27;50895;-72
2022/09/24 11:35:38;;;;;;;;;19.25;16.75;;;;;20.66;56.29;101103.59;5093447;27;49859;-74
2022/09/24 11:38:41;;;;;;;;;21.25;20.75;;;;;20.65;55.32;101103.59;5111341;27;49707;-73
2022/09/24 11:41:31;;;;;;;;;20.25;16.50;;;;;20.68;55.85;101099.09;5093880;27;49930;-74
2022/09/24 11:44:22;;;;;;;;;20.25;18.50;;;;;20.56;55.08;101061.97;5102461;27;52369;-76
2022/09/24 11:47:25;;;;;;;;;26.00;22.00;;;;;20.81;54.25;101095.31;5100234;27;50096;-77
2022/09/24 11:50:19;;;;;;;;;16.50;16.50;;;;;20.96;54.67;101096.00;5107713;27;49691;-75
2022/09/24 11:52:53;;;;;;;;;19.25;18.75;;;;;21.09;53.33;101086.88;5113092;27;49865;-72
2022/09/24 11:55:39;;;;;;;;;19.50;19.00;;;;;21.14;53.90;101077.88;5112412;27;49730;-73
2022/09/24 11:58:16;;;;;;;;;17.75;17.75;;;;;21.41;54.19;101075.63;5105495;27;49670;-73
2022/09/24 12:00:52;;;;;;;;;17.75;17.00;;;;;21.54;52.62;101069.16;5106795;27;49883;-74
2022/09/24 12:03:31;;;;;;;;;24.75;20.00;;;;;21.68;52.11;101082.22;5105371;27;50024;-75
2022/09/24 12:06:04;;;;;;;;;20.75;19.00;;;;;21.84;52.43;101078.34;5104814;27;49859;-73
2022/09/24 12:08:48;;;;;;;;;22.50;18.50;;;;;21.99;50.85;101074.47;5093856;27;49860;-71
2022/09/24 12:11:21;;;;;;;;;16.75;15.25;;;;;22.07;51.75;101064.53;5096138;27;49893;-72
2022/09/24 12:13:52;;;;;;;;;20.00;19.00;;;;;21.80;51.11;101004.47;5113425;27;49763;-72
2022/09/24 12:16:23;;;;;;;;;30.75;28.25;;;;;22.17;50.29;101071.41;5093698;27;50546;-73
2022/09/24 12:19:09;;;;;;;;;56.00;46.00;;;;;21.83;50.47;101075.72;5112148;27;49668;-73
2022/09/24 12:21:44;;;;;;;;;57.75;46.00;;;;;21.61;50.84;101067.22;5111377;27;49852;-73
2022/09/24 12:24:39;;;;;;;;;24.50;22.50;;;;;20.72;51.65;100926.53;5112449;27;50430;-74
2022/09/24 12:27:15;;;;;;;;;18.00;18.00;;;;;20.84;51.39;100955.63;5112158;27;49800;-74
2022/09/24 12:33:06;;;;;;;;;19.50;18.25;;;;;21.85;51.59;101068.53;5111780;27;49635;-78
2022/09/24 12:35:48;;;;;;;;;28.50;25.75;;;;;22.03;50.96;101062.81;5105652;27;49920;-80
2022/09/24 12:38:22;;;;;;;;;52.50;45.00;;;;;21.75;51.09;101000.16;5106873;27;49994;-83
2022/09/24 12:40:53;;;;;;;;;23.75;21.50;;;;;22.39;50.37;101062.91;5105207;27;50122;-78
2022/09/24 12:43:42;;;;;;;;;17.75;16.25;;;;;21.93;49.85;100932.94;5106467;27;50227;-78
2022/09/24 12:46:17;;;;;;;;;16.25;16.25;;;;;22.32;48.93;100960.56;5087368;27;50043;-75
2022/09/24 12:48:44;;;;;;;;;12.25;12.25;;;;;22.21;48.68;100907.34;5105721;27;49883;-80
2022/09/24 12:51:11;;;;;;;;;21.75;20.00;;;;;22.43;47.03;100915.69;5092808;27;49855;-74
2022/09/24 12:53:41;;;;;;;;;24.00;23.00;;;;;22.06;47.81;100829.25;5092274;27;49749;-85
2022/09/24 12:56:08;;;;;;;;;43.00;38.25;;;;;23.44;46.41;101044.19;5091960;27;49825;-75
2022/09/24 12:58:40;;;;;;;;;81.50;71.00;;;;;23.52;47.11;101035.94;5089844;27;51479;-78
2022/09/24 13:01:28;;;;;;;;;23.50;23.50;;;;;22.70;45.83;100905.19;5091911;27;50041;-76
2022/09/24 13:04:05;;;;;;;;;16.75;16.50;;;;;23.32;45.35;101040.06;5106242;27;49916;-76
2022/09/24 13:06:35;;;;;;;;;19.50;19.50;;;;;21.97;46.42;100855.31;5111676;27;49810;-80
2022/09/24 13:09:21;;;;;;;;;14.75;13.25;;;;;22.04;46.97;100906.84;5110927;27;51020;-72
2022/09/24 13:11:47;;;;;;;;;16.75;14.25;;;;;22.51;46.74;101043.91;5111350;27;49750;-77
2022/09/24 13:14:12;;;;;;;;;19.00;17.50;;;;;22.33;47.39;101050.56;5111366;27;49927;-74
2022/09/24 13:16:40;;;;;;;;;15.75;14.75;;;;;21.81;47.80;100981.31;5111664;27;49771;-77
2022/09/24 13:19:48;;;;;;;;;19.00;17.00;;;;;21.31;49.10;100925.38;5111287;27;49978;-74
2022/09/24 13:22:34;;;;;;;;;16.50;16.50;;;;;21.21;49.37;100976.28;5082414;27;49674;-72
2022/09/24 13:25:08;;;;;;;;;14.25;13.75;;;;;21.70;50.21;101049.22;5111422;27;50032;-72
2022/09/24 13:27:37;;;;;;;;;15.00;13.00;;;;;21.02;49.52;100951.75;5111199;27;50065;-78
2022/09/24 13:30:02;;;;;;;;;12.75;12.00;;;;;21.46;49.44;101044.38;5111015;27;49847;-75
2022/09/24 13:32:36;;;;;;;;;14.00;14.00;;;;;20.33;49.48;100883.63;5109835;27;49780;-78
2022/09/24 13:35:14;;;;;;;;;11.25;10.00;;;;;20.51;49.15;100910.00;5108906;27;49579;-78
2022/09/24 13:37:46;;;;;;;;;14.00;13.00;;;;;20.56;49.57;100912.59;5099695;27;49757;-73
2022/09/24 13:40:20;;;;;;;;;13.00;13.00;;;;;21.16;49.38;101013.78;5093673;27;50677;-75
2022/09/24 13:42:49;;;;;;;;;17.00;15.00;;;;;21.30;49.41;101040.25;5098748;27;49651;-73
2022/09/24 13:45:21;;;;;;;;;13.50;13.00;;;;;20.57;50.07;100933.91;5116696;27;49718;-75
2022/09/24 13:48:00;;;;;;;;;14.50;13.25;;;;;21.26;50.23;101046.53;5096397;27;49855;-76
2022/09/24 13:50:34;;;;;;;;;11.25;11.25;;;;;21.15;50.55;101044.94;5102408;27;50331;-75
2022/09/24 13:53:26;;;;;;;;;11.00;10.00;;;;;21.22;50.53;101044.81;5099463;27;49797;-75
2022/09/24 13:55:56;;;;;;;;;14.50;12.75;;;;;20.29;50.38;100905.91;5100562;27;49826;-76
2022/09/24 13:58:31;;;;;;;;;11.00;11.00;;;;;21.25;50.42;101045.66;5090949;27;49928;-75
2022/09/24 14:01:01;;;;;;;;;12.75;12.50;;;;;20.08;50.97;100845.84;5105019;27;49989;-75
2022/09/24 14:03:33;;;;;;;;;13.75;13.75;;;;;20.47;51.94;100936.75;5093091;27;50117;-75
2022/09/24 14:06:00;;;;;;;;;14.25;13.25;;;;;20.70;52.74;101013.72;5095926;27;49708;-76
2022/09/24 14:08:28;;;;;;;;;12.50;10.00;;;;;20.80;52.37;101009.97;5090876;27;49716;-74
2022/09/24 14:11:14;;;;;;;;;9.25;9.25;;;;;20.67;53.49;101022.66;5090989;27;50971;-75
2022/09/24 14:13:44;;;;;;;;;12.25;11.25;;;;;20.00;53.62;100923.25;5097663;27;49950;-75
2022/09/24 14:16:16;;;;;;;;;5.25;5.25;;;;;20.71;54.09;101003.00;5076424;27;49819;-75
2022/09/24 14:18:42;;;;;;;;;13.00;11.50;;;;;19.97;53.96;100879.78;5103208;27;49862;-75
2022/09/24 14:21:23;;;;;;;;;12.75;12.25;;;;;20.20;53.96;100960.25;5094532;27;49855;-75
2022/09/24 14:24:24;;;;;;;;;10.00;10.00;;;;;20.47;54.26;100982.97;5094358;27;49817;-76
2022/09/24 14:26:58;;;;;;;;;12.50;9.25;;;;;20.90;54.27;101056.06;5096633;27;49647;-76
2022/09/24 14:29:28;;;;;;;;;13.00;12.00;;;;;20.15;54.49;100931.91;5090887;27;49924;-75
2022/09/24 14:31:58;;;;;;;;;12.50;12.25;;;;;20.88;54.67;101061.44;5090626;27;50890;-75
2022/09/24 14:34:37;;;;;;;;;10.75;10.25;;;;;20.80;54.89;101050.00;5090661;27;49556;-74
2022/09/24 14:37:26;;;;;;;;;14.75;12.00;;;;;20.88;54.93;101050.75;5093892;27;49995;-75
2022/09/24 14:39:59;;;;;;;;;15.00;13.25;;;;;20.94;54.76;101053.31;5090598;27;49615;-75
2022/09/24 14:42:29;;;;;;;;;12.25;12.25;;;;;20.90;54.76;101014.25;5090432;27;49843;-74
2022/09/24 14:44:55;;;;;;;;;13.00;12.75;;;;;21.12;54.36;101028.06;5079614;27;49780;-74
2022/09/24 14:47:25;;;;;;;;;18.25;15.75;;;;;20.63;54.59;100972.91;5098258;27;49653;-74
2022/09/24 14:49:51;;;;;;;;;11.25;9.75;;;;;21.20;54.33;101038.63;5094293;27;49732;-74
2022/09/24 14:52:29;;;;;;;;;13.00;12.75;;;;;21.24;54.61;101035.00;5113185;27;49789;-73
2022/09/24 14:55:16;;;;;;;;;13.00;13.00;;;;;21.09;54.55;101006.78;5113613;27;49634;-74
2022/09/24 14:57:44;;;;;;;;;13.75;13.75;;;;;21.18;55.00;101025.31;5113589;27;50277;-73
2022/09/24 15:00:19;;;;;;;;;14.50;12.75;;;;;21.04;55.04;101024.69;5072757;27;49736;-72
2022/09/24 15:02:50;;;;;;;;;11.00;10.75;;;;;20.98;55.33;101024.78;5059006;27;52421;-74
2022/09/24 15:05:15;;;;;;;;;14.75;13.00;;;;;20.51;55.02;100981.13;5062453;27;49560;-74
2022/09/24 15:07:42;;;;;;;;;7.75;7.75;;;;;20.68;55.09;101021.75;5062459;28;50024;-73
2022/09/24 15:10:20;;;;;;;;;12.25;10.25;;;;;20.65;55.68;101034.22;5060331;28;49774;-73
2022/09/24 15:12:45;;;;;;;;;12.00;12.00;;;;;20.43;55.70;101005.25;5071410;28;50349;-74
2022/09/24 15:15:14;;;;;;;;;15.00;14.50;;;;;20.57;56.04;101034.38;5071151;28;49989;-76
2022/09/24 15:17:39;;;;;;;;;12.25;11.75;;;;;20.32;56.67;100991.16;5075891;27;49886;-75
2022/09/24 15:20:05;;;;;;;;;12.75;12.75;;;;;20.49;56.42;101042.50;5071864;28;50019;-74
2022/09/24 15:22:30;;;;;;;;;14.50;14.00;;;;;19.90;56.84;100945.63;5060682;28;50717;-75
2022/09/24 15:24:58;;;;;;;;;15.00;14.25;;;;;20.16;57.68;101010.97;5066001;28;50204;-74
2022/09/24 15:27:28;;;;;;;;;12.75;12.25;;;;;20.23;57.31;101001.97;5049387;28;49868;-75
2022/09/24 15:29:55;;;;;;;;;13.00;12.25;;;;;20.34;57.31;101026.69;5063425;28;50040;-76
2022/09/24 15:32:21;;;;;;;;;16.50;16.50;;;;;20.38;57.47;101043.53;5069264;28;50815;-77
2022/09/24 15:34:50;;;;;;;;;14.50;14.50;;;;;20.14;57.61;100999.44;5053649;27;49797;-76
2022/09/24 15:37:19;;;;;;;;;13.00;12.50;;;;;20.32;57.50;101027.63;5065315;27;49892;-76
2022/09/24 15:39:48;;;;;;;;;13.50;12.75;;;;;20.29;57.58;101015.22;5071798;27;49612;-78
2022/09/24 15:42:20;;;;;;;;;15.75;13.25;;;;;20.08;57.67;100976.44;5059232;27;50132;-77
2022/09/24 15:44:46;;;;;;;;;14.25;13.50;;;;;20.27;57.42;101015.25;5057986;28;49930;-76
2022/09/24 15:47:12;;;;;;;;;12.75;12.50;;;;;19.62;57.95;100909.63;5053490;28;49724;-76
2022/09/24 15:49:38;;;;;;;;;14.50;13.50;;;;;20.08;58.01;101000.44;5055186;27;50243;-75
2022/09/24 15:52:12;;;;;;;;;14.50;11.25;;;;;19.10;57.64;100868.53;5051562;28;49943;-75
2022/09/24 15:54:38;;;;;;;;;10.75;10.00;;;;;20.13;58.43;101035.88;5055017;28;49962;-76
2022/09/24 15:57:03;;;;;;;;;10.50;10.50;;;;;19.05;57.61;100864.19;5059222;28;49981;-76
2022/09/24 15:59:29;;;;;;;;;12.50;9.75;;;;;19.32;57.57;100933.06;5085841;27;49795;-75
2022/09/24 16:02:00;;;;;;;;;12.50;10.25;;;;;19.92;57.95;101023.72;5101590;27;49666;-74
2022/09/24 16:04:25;;;;;;;;;9.00;9.00;;;;;18.69;57.10;100850.41;5094501;27;49674;-75
2022/09/24 16:06:51;;;;;;;;;11.00;8.75;;;;;19.61;58.00;101025.03;5106645;27;49725;-75
2022/09/24 16:09:16;;;;;;;;;7.00;7.00;;;;;18.70;57.49;100857.50;5100263;27;49930;-75
2022/09/24 16:11:41;;;;;;;;;8.25;8.00;;;;;19.23;56.98;100945.59;5092532;27;50341;-76
2022/09/24 16:14:08;;;;;;;;;7.25;6.00;;;;;19.79;56.58;101034.59;5092756;27;49644;-75
2022/09/24 16:16:33;;;;;;;;;4.00;4.00;;;;;19.80;56.24;101033.69;5103301;27;49785;-74
2022/09/24 16:18:58;;;;;;;;;5.75;5.50;;;;;18.42;55.97;100824.09;5109714;27;49707;-75
2022/09/24 16:21:24;;;;;;;;;6.50;4.50;;;;;18.40;55.56;100821.44;5094421;27;50437;-76
2022/09/24 16:23:53;;;;;;;;;7.50;6.25;;;;;19.34;56.17;100992.47;5101236;27;49691;-76
2022/09/24 16:26:19;;;;;;;;;4.50;4.50;;;;;19.66;56.53;101041.81;5098016;27;49977;-76
2022/09/24 16:28:46;;;;;;;;;6.75;5.75;;;;;19.44;56.20;101034.06;5100462;27;49773;-76
2022/09/24 16:31:11;;;;;;;;;6.75;5.50;;;;;18.64;55.94;100884.13;5111836;27;50584;-75
2022/09/24 16:33:38;;;;;;;;;5.00;3.75;;;;;19.35;55.84;101006.66;5111515;27;50193;-75
2022/09/24 16:36:07;;;;;;;;;5.50;5.50;;;;;19.10;55.84;100959.00;5100445;27;50287;-76
2022/09/24 16:38:37;;;;;;;;;5.00;5.00;;;;;18.48;55.82;100871.88;5103162;27;49828;-74
2022/09/24 16:41:06;;;;;;;;;4.25;4.25;;;;;19.53;55.62;101049.06;5098721;27;49711;-76
2022/09/24 16:43:32;;;;;;;;;4.75;4.75;;;;;18.79;55.84;100938.97;5097968;27;50122;-75
2022/09/24 16:46:02;;;;;;;;;8.50;8.50;;;;;18.05;56.36;100795.25;5099831;27;49919;-77
2022/09/24 16:48:29;;;;;;;;;11.50;10.75;;;;;18.77;56.24;100933.66;5103240;27;50119;-75
2022/09/24 16:51:02;;;;;;;;;10.50;10.00;;;;;19.41;56.27;101028.78;5099768;27;49926;-76
2022/09/24 16:53:27;;;;;;;;;4.00;4.00;;;;;19.10;56.54;101014.88;5107532;27;49807;-76
2022/09/24 16:56:01;;;;;;;;;7.00;5.50;;;;;18.50;56.88;100888.69;5091612;27;49781;-76
2022/09/24 16:58:26;;;;;;;;;3.00;3.00;;;;;18.29;57.29;100885.34;5091818;27;49865;-74
2022/09/24 17:00:52;;;;;;;;;1.00;1.00;;;;;18.17;57.23;100869.50;5093195;27;59939;-75
2022/09/24 17:03:17;;;;;;;;;3.75;3.75;;;;;18.62;57.23;100975.44;5105171;27;49845;-75
2022/09/24 17:05:42;;;;;;;;;1.75;1.75;;;;;18.54;58.87;100994.13;5107589;27;50056;-76
2022/09/24 17:08:08;;;;;;;;;3.00;2.00;;;;;18.70;60.87;101064.03;5109521;27;49403;-76
2022/09/24 17:10:33;;;;;;;;;1.50;1.50;;;;;17.79;62.79;100945.94;5120873;27;64450;-77
2022/09/24 17:13:00;;;;;;;;;2.50;2.00;;;;;18.47;63.11;101090.75;5125702;27;58416;-76
2022/09/24 17:15:26;;;;;;;;;1.00;1.00;;;;;17.50;63.70;100999.13;5103944;27;49773;-78
2022/09/24 17:17:51;;;;;;;;;1.50;1.50;;;;;17.39;64.54;100984.13;5108765;27;49606;-73
2022/09/24 17:20:17;;;;;;;;;1.00;1.00;;;;;17.62;65.38;101033.59;5123999;27;50295;-72
2022/09/24 17:22:43;;;;;;;;;1.00;1.00;;;;;17.59;66.06;101069.00;5125188;27;49659;-74
2022/09/24 17:25:08;;;;;;;;;1.00;1.00;;;;;17.22;66.63;101009.84;5123701;27;49576;-72
2022/09/24 17:27:34;;;;;;;;;1.00;1.00;;;;;16.72;67.29;100956.91;5122000;27;49861;-71
2022/09/24 17:30:01;;;;;;;;;2.00;1.25;;;;;17.53;67.76;101097.31;5117751;27;50412;-72
2022/09/24 17:32:26;;;;;;;;;2.00;2.00;;;;;17.16;69.05;101060.25;5124133;27;49416;-75
2022/09/24 17:34:53;;;;;;;;;3.50;2.00;;;;;16.21;70.40;100938.34;5127134;27;49542;-79
2022/09/24 17:37:18;;;;;;;;;1.75;1.75;;;;;16.77;71.84;101037.28;5133871;27;49627;-75
2022/09/24 17:39:44;;;;;;;;;2.50;2.50;;;;;17.15;72.43;101100.91;5123550;27;49929;-77
2022/09/24 17:42:09;;;;;;;;;3.00;3.00;;;;;16.69;71.86;101057.59;5122728;27;49623;-75
2022/09/24 17:44:34;;;;;;;;;2.75;2.75;;;;;17.08;72.58;101113.31;5122536;27;49589;-76
2022/09/24 17:47:00;;;;;;;;;4.00;1.25;;;;;15.51;71.95;100869.34;5123449;27;49533;-75
2022/09/24 17:49:26;;;;;;;;;5.00;5.00;;;;;16.76;72.06;101104.44;5123660;27;49628;-74
2022/09/24 17:51:51;;;;;;;;;2.25;2.25;;;;;15.38;72.55;100884.31;5121021;27;49738;-76
2022/09/24 17:54:22;;;;;;;;;2.50;2.50;;;;;16.11;72.37;101015.97;5120312;27;49470;-78
2022/09/24 17:56:48;;;;;;;;;2.25;2.25;;;;;15.80;72.88;100954.13;5108052;27;49447;-77
2022/09/24 17:59:14;;;;;;;;;2.75;2.75;;;;;16.42;73.50;101079.66;5110522;27;50160;-81
2022/09/24 18:01:42;;;;;;;;;5.50;4.00;;;;;16.59;73.32;101112.34;5119474;27;49630;-79
2022/09/24 18:04:13;;;;;;;;;3.25;3.00;;;;;16.65;73.36;101124.72;5105597;27;49558;-76
2022/09/24 18:06:40;;;;;;;;;5.50;3.25;;;;;16.69;73.97;101140.66;5109694;27;49218;-71
2022/09/24 18:09:07;;;;;;;;;6.00;5.00;;;;;16.68;74.18;101141.56;5089897;27;50074;-71
2022/09/24 18:11:38;;;;;;;;;4.25;3.00;;;;;16.52;74.05;101111.47;5108230;27;49625;-83
2022/09/24 18:14:03;;;;;;;;;5.25;4.50;;;;;16.42;74.31;101100.84;5124436;27;49995;-89
2022/09/24 18:16:30;;;;;;;;;6.00;5.00;;;;;16.72;74.39;101145.13;5127878;27;49681;-88
2022/09/24 18:18:59;;;;;;;;;4.75;4.75;;;;;16.43;74.62;101102.63;5129155;27;49371;-73
2022/09/24 18:21:26;;;;;;;;;8.25;6.00;;;;;16.68;74.84;101153.88;5130038;27;49307;-75
2022/09/24 18:23:53;;;;;;;;;7.00;7.00;;;;;16.62;75.33;101152.13;5131131;27;49403;-72
2022/09/24 18:26:27;;;;;;;;;6.50;5.50;;;;;16.67;75.20;101163.59;5132846;27;49507;-71
2022/09/24 18:28:55;;;;;;;;;6.75;5.75;;;;;16.42;75.67;101130.88;5131245;27;49954;-75
2022/09/24 18:31:24;;;;;;;;;5.75;5.75;;;;;16.56;75.37;101150.34;5130618;27;49316;-71
2022/09/24 18:33:51;;;;;;;;;5.25;5.25;;;;;16.64;75.56;101163.63;5132010;27;49406;-73
2022/09/24 18:36:19;;;;;;;;;4.25;4.25;;;;;16.50;74.87;101150.34;5131227;27;49783;-81
2022/09/24 18:38:45;;;;;;;;;7.75;7.00;;;;;15.84;75.00;101048.59;5113653;27;51626;-76
2022/09/24 18:41:17;;;;;;;;;8.25;8.25;;;;;16.01;74.87;101093.63;5109623;27;49636;-77
2022/09/24 18:43:46;;;;;;;;;7.75;5.50;;;;;16.52;74.68;101151.22;5130315;27;49472;-75
2022/09/24 18:46:13;;;;;;;;;6.00;5.25;;;;;15.23;74.50;100950.38;5127026;27;49868;-74
2022/09/24 18:48:41;;;;;;;;;5.25;5.25;;;;;16.58;75.24;101177.72;5128872;27;49614;-74
2022/09/24 18:51:13;;;;;;;;;8.25;6.00;;;;;16.29;75.04;101126.41;5130613;27;49629;-80
2022/09/24 18:53:38;;;;;;;;;5.75;5.75;;;;;15.57;74.49;100998.16;5123372;27;49944;-77
2022/09/24 18:56:06;;;;;;;;;6.00;6.00;;;;;16.29;74.31;101143.19;5129762;27;49917;-79
2022/09/24 18:58:31;;;;;;;;;6.50;6.50;;;;;16.35;74.57;101157.34;5125373;27;49996;-74
2022/09/24 19:01:01;;;;;;;;;6.50;6.50;;;;;16.28;74.21;101128.16;5130692;27;49465;-74
2022/09/24 19:03:28;;;;;;;;;3.00;3.00;;;;;16.58;74.48;101190.97;5131404;27;49659;-74
2022/09/24 19:05:58;;;;;;;;;7.00;7.00;;;;;16.15;74.18;101109.59;5108539;27;49646;-75
2022/09/24 19:08:24;;;;;;;;;8.00;7.00;;;;;16.63;74.03;101217.50;5129279;27;49557;-75
2022/09/24 19:10:53;;;;;;;;;8.25;6.75;;;;;15.24;74.12;100975.94;5119658;27;49845;-78
2022/09/24 19:13:19;;;;;;;;;9.00;9.00;;;;;15.46;74.36;101014.84;5117520;27;49991;-75
2022/09/24 19:15:45;;;;;;;;;7.75;7.75;;;;;16.37;74.51;101156.47;5108898;27;49579;-75
2022/09/24 19:18:13;;;;;;;;;7.25;7.25;;;;;16.60;75.09;101194.53;5105185;27;49541;-74
2022/09/24 19:20:41;;;;;;;;;8.00;6.00;;;;;15.37;74.61;100980.44;5108830;27;49624;-76
2022/09/24 19:23:07;;;;;;;;;8.00;8.00;;;;;15.93;75.28;101087.44;5106323;27;49953;-76
2022/09/24 19:25:38;;;;;;;;;10.75;10.75;;;;;15.82;75.42;101092.66;5109636;27;49469;-76
2022/09/24 19:28:05;;;;;;;;;8.50;8.50;;;;;15.77;75.40;101059.13;5098601;27;51044;-77
2022/09/24 19:30:44;;;;;;;;;9.00;9.00;;;;;16.08;75.59;101116.63;5109623;27;49295;-77
2022/09/24 19:33:14;;;;;;;;;12.00;11.00;;;;;16.00;75.58;101115.69;5101913;27;49741;-74
2022/09/24 19:35:41;;;;;;;;;10.75;8.00;;;;;15.76;75.60;101079.44;5107504;27;50531;-75
2022/09/24 19:38:06;;;;;;;;;10.00;7.50;;;;;16.59;75.67;101231.63;5108127;27;49667;-75
2022/09/24 19:40:32;;;;;;;;;7.75;7.75;;;;;16.40;75.62;101196.22;5105415;27;49810;-73
2022/09/24 19:42:57;;;;;;;;;8.50;8.50;;;;;16.39;75.67;101186.50;5109425;27;49693;-74
2022/09/24 19:45:25;;;;;;;;;9.25;9.25;;;;;15.44;75.25;101043.06;5098738;27;49675;-75
2022/09/24 19:47:51;;;;;;;;;9.75;9.75;;;;;15.85;75.71;101094.47;5109486;27;49881;-74
2022/09/24 19:50:17;;;;;;;;;9.00;9.00;;;;;15.71;75.81;101092.63;5099764;27;49794;-74
2022/09/24 19:52:43;;;;;;;;;9.00;8.75;;;;;16.10;75.34;101151.06;5095980;27;49621;-77
2022/09/24 19:55:09;;;;;;;;;11.25;9.25;;;;;15.42;75.32;101031.56;5106151;27;49847;-78
2022/09/24 19:57:34;;;;;;;;;8.50;8.50;;;;;16.52;75.23;101220.13;5106237;27;50628;-76
2022/09/24 20:00:01;;;;;;;;;7.00;7.00;;;;;15.18;75.26;101008.53;5109187;27;49706;-79
2022/09/24 20:02:28;;;;;;;;;9.50;9.50;;;;;15.40;75.65;101048.31;5106543;27;49592;-74
2022/09/24 20:04:54;;;;;;;;;11.75;10.00;;;;;15.13;75.74;101009.38;5102368;27;49896;-77
2022/09/24 20:07:19;;;;;;;;;10.75;9.00;;;;;15.60;75.90;101094.34;5101402;27;49764;-75
2022/09/24 20:09:45;;;;;;;;;8.25;8.25;;;;;16.30;75.96;101208.53;5122193;27;50020;-75
2022/09/24 20:12:17;;;;;;;;;10.00;10.00;;;;;16.50;76.08;101250.13;5077721;27;50080;-74
2022/09/24 20:14:42;;;;;;;;;10.00;9.50;;;;;15.86;76.22;101139.47;5107983;27;49933;-74
2022/09/24 20:17:08;;;;;;;;;16.75;12.50;;;;;16.46;76.22;101237.75;5103638;27;51503;-74
2022/09/24 20:19:34;;;;;;;;;12.75;11.00;;;;;15.06;76.19;101004.94;5104163;27;49750;-75
2022/09/24 20:22:00;;;;;;;;;13.00;13.00;;;;;15.58;75.88;101101.34;5118952;27;49262;-78
2022/09/24 20:24:25;;;;;;;;;16.75;13.75;;;;;15.21;76.08;101023.53;5127725;27;49532;-77
2022/09/24 20:29:34;;;;;;;;;12.75;12.75;;;;;15.34;75.99;101059.75;5126306;27;49758;-80
2022/09/24 20:32:00;;;;;;;;;11.75;10.75;;;;;16.44;76.45;101274.84;5127292;27;49585;-77
2022/09/24 20:34:32;;;;;;;;;9.00;8.75;;;;;15.84;76.86;101154.47;5128024;27;49668;-74
2022/09/24 20:36:59;;;;;;;;;15.50;13.25;;;;;16.18;76.29;101226.13;5126830;27;50297;-73